createdAt,value
2019-05-03T00:00:18.650Z,100730.84
2019-05-03T00:01:02.332Z,100729.48
2019-05-03T00:01:52.726Z,100720.61
2019-05-03T00:02:18.801Z,100728.24
2019-05-03T00:02:53.824Z,100733.90
2019-05-03T00:03:18.509Z,100731.67
2019-05-03T00:03:43.182Z,100726.02
2019-05-03T00:04:07.910Z,100727.48
2019-05-03T00:04:32.568Z,100728.10
2019-05-03T00:05:14.365Z,100730.81
2019-05-03T00:05:41.790Z,100725.02
2019-05-03T00:06:06.510Z,100723.25
2019-05-03T00:06:32.119Z,100726.58
2019-05-03T00:06:56.851Z,100718.45
2019-05-03T00:07:22.293Z,100720.30
2019-05-03T00:07:47.371Z,100724.45
2019-05-03T00:08:12.655Z,100717.20
2019-05-03T00:08:37.475Z,100717.31
2019-05-03T00:09:02.392Z,100724.08
2019-05-03T00:09:27.067Z,100722.72
2019-05-03T00:09:52.131Z,100722.38
2019-05-03T00:10:17.258Z,100720.64
2019-05-03T00:10:42.554Z,100722.38
2019-05-03T00:11:07.469Z,100725.08
2019-05-03T00:11:32.679Z,100725.08
2019-05-03T00:11:57.462Z,100725.08
2019-05-03T00:12:22.273Z,100720.64
2019-05-03T00:12:47.054Z,100730.49
2019-05-03T00:13:12.503Z,100725.08
2019-05-03T00:13:37.412Z,100725.56
2019-05-03T00:14:02.050Z,100726.78
2019-05-03T00:14:26.833Z,100724.70
2019-05-03T00:14:56.390Z,100727.27
2019-05-03T00:15:32.331Z,100727.79
2019-05-03T00:15:58.820Z,100729.14
2019-05-03T00:16:25.117Z,100728.37
2019-05-03T00:16:52.115Z,100729.14
2019-05-03T00:17:16.868Z,100728.37
2019-05-03T00:17:41.969Z,100730.11
2019-05-03T00:18:06.766Z,100729.63
2019-05-03T00:18:32.791Z,100730.84
2019-05-03T00:18:57.656Z,100727.65
2019-05-03T00:19:22.344Z,100729.73
2019-05-03T00:19:47.322Z,100726.30
2019-05-03T00:20:11.970Z,100731.19
2019-05-03T00:20:36.724Z,100726.64
2019-05-03T00:21:02.133Z,100733.41
2019-05-03T00:21:27.008Z,100731.70
2019-05-03T00:21:52.608Z,100733.80
2019-05-03T00:22:17.428Z,100733.41
2019-05-03T00:22:42.094Z,100726.16
2019-05-03T00:23:06.771Z,100725.29
2019-05-03T00:23:32.456Z,100730.22
2019-05-03T00:23:57.309Z,100731.57
2019-05-03T00:24:22.626Z,100730.70
2019-05-03T00:24:47.510Z,100728.48
2019-05-03T00:25:12.896Z,100728.63
2019-05-03T00:25:37.750Z,100724.94
2019-05-03T00:26:02.765Z,100727.65
2019-05-03T00:26:27.650Z,100729.00
2019-05-03T00:26:52.304Z,100729.83
2019-05-03T00:27:16.964Z,100735.77
2019-05-03T00:27:42.747Z,100730.84
2019-05-03T00:28:07.568Z,100726.40
2019-05-03T00:28:32.289Z,100730.08
2019-05-03T00:28:56.970Z,100730.08
2019-05-03T00:29:22.006Z,100730.94
2019-05-03T00:29:46.893Z,100732.30
2019-05-03T00:30:11.981Z,100728.23
2019-05-03T00:30:36.896Z,100731.91
2019-05-03T00:31:01.982Z,100726.16
2019-05-03T00:31:26.868Z,100729.20
2019-05-03T00:31:51.757Z,100734.27
2019-05-03T00:32:16.458Z,100732.92
2019-05-03T00:32:42.729Z,100724.41
2019-05-03T00:33:07.622Z,100722.20
2019-05-03T00:33:32.284Z,100728.96
2019-05-03T00:34:02.256Z,100733.41
2019-05-03T00:34:41.816Z,100729.83
2019-05-03T00:35:24.679Z,100731.19
2019-05-03T00:36:06.088Z,100733.98
2019-05-03T00:36:38.340Z,100734.86
2019-05-03T00:37:12.526Z,100736.83
2019-05-03T00:37:38.618Z,100734.12
2019-05-03T00:38:04.902Z,100737.42
2019-05-03T00:38:29.588Z,100740.61
2019-05-03T00:38:55.698Z,100736.31
2019-05-03T00:39:27.796Z,100728.78
2019-05-03T00:40:01.898Z,100731.86
2019-05-03T00:40:29.463Z,100736.16
2019-05-03T00:40:54.110Z,100735.30
2019-05-03T00:41:18.874Z,100732.59
2019-05-03T00:41:43.562Z,100738.48
2019-05-03T00:42:08.204Z,100734.05
2019-05-03T00:42:33.176Z,100736.75
2019-05-03T00:42:58.486Z,100730.12
2019-05-03T00:43:23.168Z,100730.98
2019-05-03T00:43:47.797Z,100737.75
2019-05-03T00:44:12.508Z,100729.25
2019-05-03T00:44:37.192Z,100736.02
2019-05-03T00:45:02.267Z,100735.53
2019-05-03T00:45:27.200Z,100736.02
2019-05-03T00:45:51.852Z,100735.05
2019-05-03T00:46:16.633Z,100735.92
2019-05-03T00:46:42.160Z,100738.72
2019-05-03T00:47:07.030Z,100736.02
2019-05-03T00:47:32.866Z,100733.70
2019-05-03T00:47:57.686Z,100740.08
2019-05-03T00:48:22.340Z,100736.40
2019-05-03T00:48:47.000Z,100740.95
2019-05-03T00:49:11.969Z,100740.46
2019-05-03T00:49:36.770Z,100735.15
2019-05-03T00:50:02.868Z,100734.66
2019-05-03T00:50:27.766Z,100737.38
2019-05-03T00:50:52.402Z,100741.42
2019-05-03T00:51:17.050Z,100735.15
2019-05-03T00:51:42.414Z,100741.42
2019-05-03T00:52:07.240Z,100738.96
2019-05-03T00:52:31.990Z,100735.25
2019-05-03T00:52:56.724Z,100737.22
2019-05-03T00:53:22.377Z,100741.18
2019-05-03T00:53:47.712Z,100738.96
2019-05-03T00:54:12.994Z,100745.48
2019-05-03T00:54:37.652Z,100740.08
2019-05-03T00:55:03.497Z,100738.72
2019-05-03T00:55:28.695Z,100741.42
2019-05-03T00:55:53.342Z,100736.50
2019-05-03T00:56:17.990Z,100739.59
2019-05-03T00:56:44.485Z,100736.02
2019-05-03T00:57:09.239Z,100737.61
2019-05-03T00:57:33.878Z,100737.86
2019-05-03T00:57:58.564Z,100736.02
2019-05-03T00:58:23.280Z,100735.39
2019-05-03T00:58:49.582Z,100736.98
2019-05-03T00:59:14.820Z,100736.12
2019-05-03T00:59:39.498Z,100734.91
2019-05-03T01:00:07.661Z,100737.61
2019-05-03T01:00:32.455Z,100738.96
2019-05-03T01:00:57.196Z,100737.95
2019-05-03T01:01:22.505Z,100732.20
2019-05-03T01:01:47.286Z,100733.41
2019-05-03T01:02:11.978Z,100735.63
2019-05-03T01:02:36.766Z,100736.12
2019-05-03T01:03:02.132Z,100733.90
2019-05-03T01:03:27.078Z,100731.43
2019-05-03T01:03:52.656Z,100732.20
2019-05-03T01:04:17.568Z,100736.61
2019-05-03T01:04:42.681Z,100729.59
2019-05-03T01:05:07.573Z,100732.44
2019-05-03T01:05:33.088Z,100733.66
2019-05-03T01:05:57.892Z,100732.30
2019-05-03T01:06:22.553Z,100728.86
2019-05-03T01:06:47.184Z,100732.92
2019-05-03T01:07:11.895Z,100730.31
2019-05-03T01:07:36.697Z,100732.44
2019-05-03T01:08:01.943Z,100730.31
2019-05-03T01:08:26.874Z,100733.98
2019-05-03T01:08:52.434Z,100733.64
2019-05-03T01:09:18.762Z,100737.70
2019-05-03T01:09:43.435Z,100731.67
2019-05-03T01:10:09.560Z,100732.16
2019-05-03T01:10:34.232Z,100733.13
2019-05-03T01:10:58.876Z,100732.77
2019-05-03T01:11:23.584Z,100729.58
2019-05-03T01:11:48.210Z,100728.23
2019-05-03T01:12:13.259Z,100731.91
2019-05-03T01:12:37.900Z,100732.88
2019-05-03T01:13:02.736Z,100734.22
2019-05-03T01:13:27.485Z,100728.92
2019-05-03T01:13:52.432Z,100728.92
2019-05-03T01:14:17.159Z,100731.63
2019-05-03T01:14:43.372Z,100729.44
2019-05-03T01:15:09.901Z,100730.02
2019-05-03T01:15:45.566Z,100727.31
2019-05-03T01:16:12.758Z,100730.02
2019-05-03T01:16:37.417Z,100730.51
2019-05-03T01:17:02.611Z,100734.56
2019-05-03T01:17:27.429Z,100735.05
2019-05-03T01:17:52.554Z,100733.83
2019-05-03T01:18:18.962Z,100735.67
2019-05-03T01:18:43.598Z,100737.50
2019-05-03T01:19:08.249Z,100744.27
2019-05-03T01:19:33.437Z,100741.17
2019-05-03T01:19:58.101Z,100743.39
2019-05-03T01:20:22.814Z,100740.69
2019-05-03T01:20:47.566Z,100738.37
2019-05-03T01:21:12.202Z,100738.95
2019-05-03T01:21:36.863Z,100740.69
2019-05-03T01:22:01.948Z,100744.16
2019-05-03T01:22:26.769Z,100740.69
2019-05-03T01:22:51.888Z,100742.14
2019-05-03T01:23:16.787Z,100741.31
2019-05-03T01:23:41.972Z,100742.28
2019-05-03T01:24:06.824Z,100741.17
2019-05-03T01:24:32.256Z,100740.69
2019-05-03T01:24:57.089Z,100742.53
2019-05-03T01:25:30.089Z,100743.39
2019-05-03T01:25:48.244Z,100745.13
2019-05-03T01:26:12.907Z,100743.50
2019-05-03T01:26:37.531Z,100745.23
2019-05-03T01:27:02.196Z,100743.02
2019-05-03T01:27:28.119Z,100745.37
2019-05-03T01:27:52.967Z,100742.14
2019-05-03T01:28:18.081Z,100736.87
2019-05-03T01:28:42.801Z,100742.66
2019-05-03T01:29:07.437Z,100741.31
2019-05-03T01:29:32.375Z,100737.25
2019-05-03T01:29:57.301Z,100746.72
2019-05-03T01:30:22.640Z,100745.85
2019-05-03T01:30:47.384Z,100744.59
2019-05-03T01:31:12.104Z,100743.14
2019-05-03T01:31:36.726Z,100748.91
2019-05-03T01:32:02.290Z,100749.04
2019-05-03T01:32:27.210Z,100750.39
2019-05-03T01:32:52.351Z,100746.33
2019-05-03T01:33:17.147Z,100728.79
2019-05-03T01:33:42.621Z,100728.79
2019-05-03T01:34:07.429Z,100749.04
2019-05-03T01:34:32.581Z,100753.20
2019-05-03T01:34:57.393Z,100754.55
2019-05-03T01:35:22.069Z,100759.09
2019-05-03T01:35:47.147Z,100748.89
2019-05-03T01:36:12.215Z,100749.91
2019-05-03T01:36:36.989Z,100756.77
2019-05-03T01:37:02.655Z,100750.01
2019-05-03T01:37:27.475Z,100753.58
2019-05-03T01:37:52.119Z,100754.94
2019-05-03T01:38:19.391Z,100755.65
2019-05-03T01:38:43.105Z,100755.27
2019-05-03T01:39:07.910Z,100753.43
2019-05-03T01:39:32.578Z,100749.86
2019-05-03T01:39:57.249Z,100748.89
2019-05-03T01:40:22.125Z,100757.38
2019-05-03T01:40:46.817Z,100750.83
2019-05-03T01:41:12.286Z,100759.09
2019-05-03T01:41:37.160Z,100753.81
2019-05-03T01:42:02.697Z,100757.00
2019-05-03T01:42:27.593Z,100752.56
2019-05-03T01:42:53.120Z,100757.23
2019-05-03T01:43:17.769Z,100756.23
2019-05-03T01:43:42.401Z,100760.80
2019-05-03T01:44:07.205Z,100758.59
2019-05-03T01:44:32.635Z,100752.69
2019-05-03T01:44:57.411Z,100758.20
2019-05-03T01:45:23.630Z,100751.44
2019-05-03T01:45:48.428Z,100760.91
2019-05-03T01:46:13.071Z,100760.28
2019-05-03T01:46:37.751Z,100752.80
2019-05-03T01:47:04.023Z,100759.17
2019-05-03T01:47:39.209Z,100754.63
2019-05-03T01:48:05.525Z,100760.03
2019-05-03T01:48:32.218Z,100755.98
2019-05-03T01:48:58.711Z,100760.52
2019-05-03T01:49:27.547Z,100764.19
2019-05-03T01:49:53.851Z,100759.30
2019-05-03T01:50:20.115Z,100762.11
2019-05-03T01:51:02.925Z,100761.63
2019-05-03T01:51:32.683Z,100757.56
2019-05-03T01:52:12.810Z,100764.42
2019-05-03T01:52:39.217Z,100758.14
2019-05-03T01:53:05.491Z,100760.37
2019-05-03T01:53:32.230Z,100756.06
2019-05-03T01:53:57.039Z,100760.98
2019-05-03T01:54:22.877Z,100760.59
2019-05-03T01:54:47.706Z,100761.95
2019-05-03T01:55:15.742Z,100760.22
2019-05-03T01:55:53.817Z,100759.34
2019-05-03T01:56:18.469Z,100751.72
2019-05-03T01:56:55.461Z,100759.34
2019-05-03T01:57:11.542Z,100758.13
2019-05-03T01:57:36.463Z,100757.64
2019-05-03T01:58:01.926Z,100759.48
2019-05-03T01:58:26.744Z,100755.91
2019-05-03T01:58:52.432Z,100750.11
2019-05-03T01:59:17.242Z,100759.48
2019-05-03T01:59:42.571Z,100759.83
2019-05-03T02:00:09.528Z,100760.45
2019-05-03T02:00:34.645Z,100756.77
2019-05-03T02:01:04.052Z,100755.91
2019-05-03T02:01:42.371Z,100758.99
2019-05-03T02:02:14.765Z,100761.31
2019-05-03T02:02:52.393Z,100759.48
2019-05-03T02:03:18.398Z,100759.96
2019-05-03T02:04:02.992Z,100759.48
2019-05-03T02:04:32.475Z,100754.17
2019-05-03T02:05:15.171Z,100760.55
2019-05-03T02:05:42.891Z,100756.63
2019-05-03T02:06:07.789Z,100759.00
2019-05-03T02:06:32.423Z,100757.17
2019-05-03T02:06:57.246Z,100757.78
2019-05-03T02:07:22.412Z,100759.13
2019-05-03T02:07:48.648Z,100762.32
2019-05-03T02:08:14.609Z,100758.27
2019-05-03T02:08:39.330Z,100760.48
2019-05-03T02:09:05.477Z,100756.91
2019-05-03T02:09:32.190Z,100762.32
2019-05-03T02:09:56.492Z,100763.29
2019-05-03T02:10:22.667Z,100765.51
2019-05-03T02:10:47.451Z,100765.51
2019-05-03T02:11:12.112Z,100766.86
2019-05-03T02:11:36.754Z,100768.21
2019-05-03T02:12:02.113Z,100765.51
2019-05-03T02:12:28.583Z,100766.86
2019-05-03T02:12:53.259Z,100763.19
2019-05-03T02:13:17.998Z,100768.59
2019-05-03T02:13:42.798Z,100769.47
2019-05-03T02:14:07.471Z,100771.17
2019-05-03T02:14:32.141Z,100769.33
2019-05-03T02:14:56.805Z,100766.77
2019-05-03T02:15:22.172Z,100769.95
2019-05-03T02:15:46.889Z,100768.11
2019-05-03T02:16:11.662Z,100768.98
2019-05-03T02:16:36.445Z,100770.33
2019-05-03T02:17:01.800Z,100768.59
2019-05-03T02:17:26.733Z,100769.81
2019-05-03T02:17:52.077Z,100771.69
2019-05-03T02:18:16.807Z,100764.92
2019-05-03T02:18:42.397Z,100773.04
2019-05-03T02:19:07.200Z,100773.04
2019-05-03T02:19:32.677Z,100773.04
2019-05-03T02:19:57.378Z,100771.69
2019-05-03T02:20:22.019Z,100772.52
2019-05-03T02:20:46.689Z,100773.88
2019-05-03T02:21:12.246Z,100773.88
2019-05-03T02:21:36.979Z,100774.73
2019-05-03T02:22:02.888Z,100773.88
2019-05-03T02:22:27.772Z,100777.45
2019-05-03T02:22:52.436Z,100780.15
2019-05-03T02:23:17.085Z,100784.20
2019-05-03T02:23:42.593Z,100784.81
2019-05-03T02:24:07.820Z,100782.50
2019-05-03T02:24:32.861Z,100783.85
2019-05-03T02:24:57.591Z,100789.73
2019-05-03T02:25:22.243Z,100784.20
2019-05-03T02:25:56.068Z,100785.20
2019-05-03T02:26:14.330Z,100790.22
2019-05-03T02:26:39.028Z,100793.31
2019-05-03T02:27:03.657Z,100789.84
2019-05-03T02:27:28.378Z,100793.02
2019-05-03T02:27:53.060Z,100792.16
2019-05-03T02:28:17.700Z,100797.95
2019-05-03T02:28:42.377Z,100799.39
2019-05-03T02:29:07.019Z,100799.20
2019-05-03T02:29:32.629Z,100794.53
2019-05-03T02:29:57.436Z,100806.64
2019-05-03T02:30:24.776Z,100799.08
2019-05-03T02:30:48.493Z,100802.39
2019-05-03T02:31:13.873Z,100809.89
2019-05-03T02:31:38.603Z,100809.89
2019-05-03T02:32:03.636Z,100801.77
2019-05-03T02:32:28.425Z,100801.29
2019-05-03T02:32:53.417Z,100799.08
2019-05-03T02:33:18.708Z,100801.42
2019-05-03T02:33:43.660Z,100792.45
2019-05-03T02:34:08.411Z,100786.75
2019-05-03T02:34:33.077Z,100789.35
2019-05-03T02:34:57.729Z,100789.84
2019-05-03T02:35:22.802Z,100787.52
2019-05-03T02:35:47.712Z,100791.58
2019-05-03T02:36:13.557Z,100795.24
2019-05-03T02:36:38.582Z,100788.97
2019-05-03T02:37:03.384Z,100793.50
2019-05-03T02:37:28.177Z,100786.75
2019-05-03T02:37:54.103Z,100792.38
2019-05-03T02:38:18.748Z,100791.29
2019-05-03T02:38:43.537Z,100789.09
2019-05-03T02:39:13.339Z,100785.63
2019-05-03T02:39:38.238Z,100788.71
2019-05-03T02:40:04.217Z,100790.30
2019-05-03T02:40:29.252Z,100789.78
2019-05-03T02:40:53.954Z,100784.89
2019-05-03T02:41:18.562Z,100787.20
2019-05-03T02:41:46.028Z,100781.41
2019-05-03T02:42:11.625Z,100785.08
2019-05-03T02:42:35.994Z,100789.14
2019-05-03T02:43:08.385Z,100787.78
2019-05-03T02:43:36.356Z,100791.84
2019-05-03T02:44:01.034Z,100783.38
2019-05-03T02:44:26.605Z,100789.36
2019-05-03T02:44:51.594Z,100788.40
2019-05-03T02:45:17.933Z,100791.09
2019-05-03T02:45:45.658Z,100786.66
2019-05-03T02:46:28.654Z,100790.23
2019-05-03T02:46:56.242Z,100792.06
2019-05-03T02:47:26.523Z,100794.38
2019-05-03T02:47:55.399Z,100792.68
2019-05-03T02:48:21.163Z,100786.89
2019-05-03T02:48:47.487Z,100791.91
2019-05-03T02:49:15.381Z,100795.95
2019-05-03T02:49:45.504Z,100791.03
2019-05-03T02:50:12.330Z,100797.31
2019-05-03T02:50:36.978Z,100795.09
2019-05-03T02:51:01.700Z,100789.33
2019-05-03T02:51:26.454Z,100793.87
2019-05-03T02:51:51.240Z,100787.11
2019-05-03T02:52:36.620Z,100791.65
2019-05-03T02:53:00.800Z,100794.83
2019-05-03T02:53:26.340Z,100792.52
2019-05-03T02:53:51.089Z,100795.22
2019-05-03T02:54:15.913Z,100797.92
2019-05-03T02:54:40.548Z,100795.70
2019-05-03T02:55:08.976Z,100789.91
2019-05-03T02:55:35.922Z,100793.58
2019-05-03T02:56:13.964Z,100794.93
2019-05-03T02:56:26.508Z,100798.02
2019-05-03T02:56:51.226Z,100792.70
2019-05-03T02:57:15.872Z,100795.41
2019-05-03T02:57:40.565Z,100795.80
2019-05-03T02:58:05.734Z,100791.26
2019-05-03T02:58:30.705Z,100796.28
2019-05-03T02:58:55.878Z,100793.97
2019-05-03T02:59:20.811Z,100793.48
2019-05-03T02:59:45.475Z,100795.22
2019-05-03T03:00:11.926Z,100794.35
2019-05-03T03:00:57.950Z,100796.19
2019-05-03T03:01:26.075Z,100794.45
2019-05-03T03:01:50.050Z,100793.87
2019-05-03T03:02:15.193Z,100801.11
2019-05-03T03:02:40.218Z,100794.35
2019-05-03T03:03:05.632Z,100792.61
2019-05-03T03:03:30.910Z,100798.89
2019-05-03T03:03:56.298Z,100795.80
2019-05-03T03:04:20.955Z,100794.45
2019-05-03T03:04:45.619Z,100799.47
2019-05-03T03:05:10.390Z,100796.77
2019-05-03T03:05:35.321Z,100793.09
2019-05-03T03:06:01.549Z,100793.97
2019-05-03T03:06:26.923Z,100796.41
2019-05-03T03:06:52.070Z,100799.11
2019-05-03T03:07:16.715Z,100789.66
2019-05-03T03:07:41.539Z,100794.58
2019-05-03T03:08:06.238Z,100796.28
2019-05-03T03:08:33.610Z,100792.70
2019-05-03T03:08:58.976Z,100795.41
2019-05-03T03:09:25.883Z,100792.36
2019-05-03T03:09:49.993Z,100795.41
2019-05-03T03:10:16.252Z,100795.93
2019-05-03T03:10:41.069Z,100797.28
2019-05-03T03:11:07.915Z,100799.47
2019-05-03T03:11:35.425Z,100795.93
2019-05-03T03:11:59.448Z,100798.50
2019-05-03T03:12:25.744Z,100796.77
2019-05-03T03:12:50.763Z,100796.77
2019-05-03T03:13:16.331Z,100797.15
2019-05-03T03:13:41.213Z,100796.77
2019-05-03T03:14:06.180Z,100796.77
2019-05-03T03:14:31.024Z,100798.50
2019-05-03T03:14:56.126Z,100795.93
2019-05-03T03:15:20.792Z,100800.81
2019-05-03T03:15:45.874Z,100800.81
2019-05-03T03:16:10.893Z,100796.41
2019-05-03T03:16:36.275Z,100797.76
2019-05-03T03:17:02.407Z,100797.76
2019-05-03T03:17:27.134Z,100802.68
2019-05-03T03:17:52.682Z,100798.11
2019-05-03T03:18:17.328Z,100799.11
2019-05-03T03:18:41.991Z,100798.11
2019-05-03T03:19:07.146Z,100795.41
2019-05-03T03:19:31.993Z,100799.11
2019-05-03T03:19:56.636Z,100798.73
2019-05-03T03:20:21.565Z,100799.20
2019-05-03T03:20:46.284Z,100801.81
2019-05-03T03:21:15.738Z,100801.81
2019-05-03T03:21:41.108Z,100800.08
2019-05-03T03:22:07.511Z,100796.50
2019-05-03T03:22:36.268Z,100801.42
2019-05-03T03:23:00.364Z,100801.91
2019-05-03T03:23:26.853Z,100796.02
2019-05-03T03:24:05.898Z,100799.20
2019-05-03T03:24:30.323Z,100800.55
2019-05-03T03:24:58.165Z,100802.00
2019-05-03T03:25:25.767Z,100799.43
2019-05-03T03:25:51.414Z,100798.95
2019-05-03T03:26:32.904Z,100801.75
2019-05-03T03:26:44.519Z,100804.84
2019-05-03T03:27:08.906Z,100803.58
2019-05-03T03:27:35.956Z,100808.59
2019-05-03T03:28:01.846Z,100798.66
2019-05-03T03:28:26.692Z,100803.19
2019-05-03T03:28:56.371Z,100807.38
2019-05-03T03:29:25.213Z,100802.45
2019-05-03T03:29:55.165Z,100812.30
2019-05-03T03:30:38.093Z,100810.56
2019-05-03T03:31:18.012Z,100808.82
2019-05-03T03:32:08.448Z,100810.17
2019-05-03T03:32:37.915Z,100805.38
2019-05-03T03:32:59.852Z,100811.84
2019-05-03T03:33:28.189Z,100810.14
2019-05-03T03:33:51.587Z,100807.53
2019-05-03T03:34:18.653Z,100811.19
2019-05-03T03:34:55.381Z,100814.89
2019-05-03T03:35:21.598Z,100811.80
2019-05-03T03:35:49.143Z,100808.71
2019-05-03T03:36:40.777Z,100812.77
2019-05-03T03:37:00.813Z,100814.59
2019-05-03T03:37:16.622Z,100809.80
2019-05-03T03:37:41.261Z,100817.78
2019-05-03T03:38:05.929Z,100813.37
2019-05-03T03:38:30.573Z,100812.02
2019-05-03T03:38:55.440Z,100816.91
2019-05-03T03:39:20.408Z,100817.42
2019-05-03T03:39:45.726Z,100817.91
2019-05-03T03:40:10.672Z,100813.37
2019-05-03T03:40:35.884Z,100815.08
2019-05-03T03:41:01.018Z,100812.02
2019-05-03T03:41:25.961Z,100820.13
2019-05-03T03:41:50.660Z,100822.83
2019-05-03T03:42:16.160Z,100816.91
2019-05-03T03:42:41.185Z,100815.08
2019-05-03T03:43:05.842Z,100823.18
2019-05-03T03:43:30.488Z,100821.83
2019-05-03T03:43:55.794Z,100823.66
2019-05-03T03:44:20.764Z,100819.61
2019-05-03T03:44:45.568Z,100819.52
2019-05-03T03:45:10.222Z,100821.48
2019-05-03T03:45:35.939Z,100824.53
2019-05-03T03:46:00.749Z,100820.97
2019-05-03T03:46:25.580Z,100821.48
2019-05-03T03:46:50.550Z,100822.83
2019-05-03T03:47:16.765Z,100828.23
2019-05-03T03:47:41.564Z,100822.70
2019-05-03T03:48:06.241Z,100823.66
2019-05-03T03:48:30.872Z,100825.89
2019-05-03T03:48:56.045Z,100823.18
2019-05-03T03:49:20.820Z,100819.61
2019-05-03T03:49:46.533Z,100824.53
2019-05-03T03:50:11.362Z,100822.70
2019-05-03T03:50:36.194Z,100823.57
2019-05-03T03:51:00.911Z,100828.97
2019-05-03T03:51:26.387Z,100826.66
2019-05-03T03:51:52.465Z,100829.36
2019-05-03T03:52:17.218Z,100827.63
2019-05-03T03:52:42.202Z,100830.71
2019-05-03T03:53:06.924Z,100823.57
2019-05-03T03:53:32.344Z,100836.59
2019-05-03T03:53:57.010Z,100830.71
2019-05-03T03:54:22.430Z,100829.36
2019-05-03T03:54:47.273Z,100834.77
2019-05-03T03:55:11.919Z,100829.45
2019-05-03T03:55:36.641Z,100829.36
2019-05-03T03:56:01.352Z,100828.02
2019-05-03T03:56:26.007Z,100830.71
2019-05-03T03:57:02.919Z,100832.45
2019-05-03T03:57:20.507Z,100835.16
2019-05-03T03:57:46.766Z,100829.36
2019-05-03T03:58:11.802Z,100825.79
2019-05-03T03:58:36.630Z,100831.67
2019-05-03T03:59:01.284Z,100829.84
2019-05-03T03:59:26.892Z,100835.73
2019-05-03T03:59:51.725Z,100833.02
2019-05-03T04:00:16.485Z,100833.02
2019-05-03T04:00:41.205Z,100837.08
2019-05-03T04:01:06.173Z,100830.33
2019-05-03T04:01:31.105Z,100837.95
2019-05-03T04:01:55.793Z,100837.08
2019-05-03T04:02:20.493Z,100831.29
2019-05-03T04:02:45.845Z,100835.25
2019-05-03T04:03:10.871Z,100835.34
2019-05-03T04:03:36.161Z,100836.69
2019-05-03T04:04:01.053Z,100838.04
2019-05-03T04:04:26.259Z,100838.65
2019-05-03T04:04:51.816Z,100837.69
2019-05-03T04:05:16.554Z,100840.74
2019-05-03T04:05:41.588Z,100844.80
2019-05-03T04:06:06.231Z,100842.09
2019-05-03T04:06:42.825Z,100845.18
2019-05-03T04:07:07.552Z,100846.14
2019-05-03T04:07:32.265Z,100846.14
2019-05-03T04:07:56.939Z,100845.79
2019-05-03T04:08:21.590Z,100849.45
2019-05-03T04:08:46.250Z,100845.79
2019-05-03T04:09:10.908Z,100846.75
2019-05-03T04:09:36.375Z,100849.06
2019-05-03T04:10:01.486Z,100853.12
2019-05-03T04:10:26.514Z,100853.12
2019-05-03T04:10:51.249Z,100852.25
2019-05-03T04:11:15.988Z,100852.73
2019-05-03T04:11:40.621Z,100852.38
2019-05-03T04:12:06.131Z,100855.08
2019-05-03T04:12:31.039Z,100848.41
2019-05-03T04:12:56.100Z,100855.65
2019-05-03T04:13:21.349Z,100851.98
2019-05-03T04:13:46.359Z,100857.39
2019-05-03T04:14:12.647Z,100854.69
2019-05-03T04:14:51.303Z,100853.34
2019-05-03T04:15:20.470Z,100856.12
2019-05-03T04:15:52.567Z,100857.48
2019-05-03T04:16:21.152Z,100855.74
2019-05-03T04:16:47.611Z,100857.09
2019-05-03T04:17:16.795Z,100863.48
2019-05-03T04:17:58.807Z,100859.53
2019-05-03T04:18:31.304Z,100855.87
2019-05-03T04:18:57.631Z,100858.17
2019-05-03T04:19:36.155Z,100860.02
2019-05-03T04:19:59.949Z,100860.87
2019-05-03T04:20:26.408Z,100858.17
2019-05-03T04:20:51.193Z,100863.19
2019-05-03T04:21:16.304Z,100857.44
2019-05-03T04:21:41.099Z,100856.56
2019-05-03T04:22:06.091Z,100862.92
2019-05-03T04:22:31.169Z,100861.97
2019-05-03T04:22:56.185Z,100857.79
2019-05-03T04:23:21.059Z,100856.92
2019-05-03T04:23:45.947Z,100859.53
2019-05-03T04:24:10.664Z,100853.17
2019-05-03T04:24:35.378Z,100855.38
2019-05-03T04:25:00.152Z,100855.00
2019-05-03T04:25:26.277Z,100854.91
2019-05-03T04:25:51.209Z,100852.08
2019-05-03T04:26:16.422Z,100855.65
2019-05-03T04:26:41.247Z,100861.44
2019-05-03T04:27:15.517Z,100858.73
2019-05-03T04:27:32.241Z,100856.42
2019-05-03T04:27:56.921Z,100861.70
2019-05-03T04:28:21.571Z,100859.88
2019-05-03T04:28:46.718Z,100863.92
2019-05-03T04:29:11.522Z,100858.52
2019-05-03T04:29:36.812Z,100862.00
2019-05-03T04:30:01.461Z,100866.41
2019-05-03T04:30:26.172Z,100866.41
2019-05-03T04:30:50.872Z,100862.74
2019-05-03T04:31:15.647Z,100866.70
2019-05-03T04:31:40.319Z,100862.27
2019-05-03T04:32:08.445Z,100862.27
2019-05-03T04:32:35.858Z,100864.88
2019-05-03T04:32:59.503Z,100861.66
2019-05-03T04:33:26.799Z,100860.59
2019-05-03T04:33:50.569Z,100866.22
2019-05-03T04:34:16.277Z,100863.87
2019-05-03T04:34:41.151Z,100863.52
2019-05-03T04:35:05.886Z,100858.21
2019-05-03T04:35:30.534Z,100867.19
2019-05-03T04:35:55.676Z,100867.92
2019-05-03T04:36:20.599Z,100869.28
2019-05-03T04:36:46.231Z,100870.80
2019-05-03T04:37:11.115Z,100870.44
2019-05-03T04:37:36.089Z,100869.45
2019-05-03T04:38:00.962Z,100870.22
2019-05-03T04:38:26.056Z,100870.09
2019-05-03T04:38:50.878Z,100872.09
2019-05-03T04:39:19.166Z,100875.19
2019-05-03T04:39:41.900Z,100870.91
2019-05-03T04:40:07.000Z,100880.18
2019-05-03T04:40:31.687Z,100878.22
2019-05-03T04:40:56.409Z,100878.22
2019-05-03T04:41:21.081Z,100880.92
2019-05-03T04:41:45.719Z,100877.26
2019-05-03T04:42:10.383Z,100880.92
2019-05-03T04:42:35.673Z,100884.02
2019-05-03T04:43:00.664Z,100881.70
2019-05-03T04:43:26.439Z,100877.91
2019-05-03T04:43:51.573Z,100878.55
2019-05-03T04:44:16.246Z,100882.03
2019-05-03T04:44:40.881Z,100883.91
2019-05-03T04:45:06.297Z,100882.36
2019-05-03T04:45:30.927Z,100885.80
2019-05-03T04:46:06.759Z,100887.94
2019-05-03T04:46:35.663Z,100878.77
2019-05-03T04:47:00.208Z,100889.25
2019-05-03T04:47:26.295Z,100886.07
2019-05-03T04:47:51.493Z,100883.14
2019-05-03T04:48:16.302Z,100889.09
2019-05-03T04:48:41.112Z,100888.58
2019-05-03T04:49:05.919Z,100882.69
2019-05-03T04:49:30.852Z,100882.69
2019-05-03T04:49:55.649Z,100883.17
2019-05-03T04:50:20.432Z,100884.91
2019-05-03T04:50:45.644Z,100879.89
2019-05-03T04:51:10.541Z,100887.78
2019-05-03T04:51:35.265Z,100885.07
2019-05-03T04:51:59.962Z,100884.69
2019-05-03T04:52:25.862Z,100889.35
2019-05-03T04:52:50.893Z,100886.66
2019-05-03T04:53:16.251Z,100883.33
2019-05-03T04:53:45.303Z,100888.39
2019-05-03T04:54:16.820Z,100892.31
2019-05-03T04:54:45.119Z,100886.91
2019-05-03T04:55:09.448Z,100887.52
2019-05-03T04:55:36.242Z,100886.04
2019-05-03T04:56:00.496Z,100893.80
2019-05-03T04:56:25.996Z,100891.09
2019-05-03T04:56:51.035Z,100890.00
2019-05-03T04:57:21.170Z,100888.16
2019-05-03T04:57:46.838Z,100894.31
2019-05-03T04:58:08.482Z,100890.61